sensor_id;sensor_type;location;lat;lon;timestamp;P1;durP1;ratioP1;P2;durP2;ratioP2
77524;SDS011;66638;50.050;21.124;2023-11-19T00:02:29;20.10;;;11.30;;
77524;SDS011;66638;50.050;21.124;2023-11-19T00:08:04;16.10;;;9.50;;
77524;SDS011;66638;50.050;21.124;2023-11-19T00:10:53;20.20;;;11.40;;
77524;SDS011;66638;50.050;21.124;2023-11-19T00:13:39;18.80;;;11.60;;
77524;SDS011;66638;50.050;21.124;2023-11-19T00:16:27;18.90;;;11.60;;
77524;SDS011;66638;50.050;21.124;2023-11-19T00:19:15;15.70;;;10.30;;
77524;SDS011;66638;50.050;21.124;2023-11-19T00:22:03;14.50;;;8.90;;
77524;SDS011;66638;50.050;21.124;2023-11-19T00:24:50;14.50;;;9.90;;
77524;SDS011;66638;50.050;21.124;2023-11-19T00:27:37;16.40;;;10.40;;
77524;SDS011;66638;50.050;21.124;2023-11-19T00:30:25;15.40;;;10.20;;
77524;SDS011;66638;50.050;21.124;2023-11-19T00:33:12;18.70;;;11.50;;
77524;SDS011;66638;50.050;21.124;2023-11-19T00:35:59;17.40;;;10.40;;
77524;SDS011;66638;50.050;21.124;2023-11-19T00:38:47;16.50;;;10.00;;
77524;SDS011;66638;50.050;21.124;2023-11-19T00:41:34;18.30;;;11.00;;
77524;SDS011;66638;50.050;21.124;2023-11-19T00:44:21;15.00;;;10.30;;
77524;SDS011;66638;50.050;21.124;2023-11-19T00:47:08;14.20;;;9.50;;
77524;SDS011;66638;50.050;21.124;2023-11-19T00:52:43;15.60;;;9.20;;
77524;SDS011;66638;50.050;21.124;2023-11-19T00:55:30;17.20;;;10.30;;
77524;SDS011;66638;50.050;21.124;2023-11-19T00:58:18;16.90;;;10.50;;
77524;SDS011;66638;50.050;21.124;2023-11-19T01:01:05;17.90;;;10.80;;
77524;SDS011;66638;50.050;21.124;2023-11-19T01:03:52;16.20;;;10.70;;
77524;SDS011;66638;50.050;21.124;2023-11-19T01:06:39;19.60;;;12.70;;
77524;SDS011;66638;50.050;21.124;2023-11-19T01:12:13;19.60;;;10.40;;
77524;SDS011;66638;50.050;21.124;2023-11-19T01:15:01;14.60;;;9.00;;
77524;SDS011;66638;50.050;21.124;2023-11-19T01:20:35;16.40;;;9.70;;
77524;SDS011;66638;50.050;21.124;2023-11-19T01:23:23;13.90;;;9.20;;
77524;SDS011;66638;50.050;21.124;2023-11-19T01:26:10;19.90;;;11.40;;
77524;SDS011;66638;50.050;21.124;2023-11-19T01:28:59;16.10;;;9.90;;
77524;SDS011;66638;50.050;21.124;2023-11-19T01:31:48;16.80;;;10.30;;
77524;SDS011;66638;50.050;21.124;2023-11-19T01:34:35;17.80;;;11.20;;
77524;SDS011;66638;50.050;21.124;2023-11-19T01:37:23;15.90;;;10.10;;
77524;SDS011;66638;50.050;21.124;2023-11-19T01:40:10;14.50;;;9.50;;
77524;SDS011;66638;50.050;21.124;2023-11-19T01:42:59;17.10;;;10.40;;
77524;SDS011;66638;50.050;21.124;2023-11-19T01:45:47;14.20;;;9.60;;
77524;SDS011;66638;50.050;21.124;2023-11-19T01:48:34;21.80;;;12.30;;
77524;SDS011;66638;50.050;21.124;2023-11-19T01:51:22;16.70;;;10.70;;
77524;SDS011;66638;50.050;21.124;2023-11-19T01:54:10;19.70;;;12.00;;
77524;SDS011;66638;50.050;21.124;2023-11-19T01:56:58;18.70;;;12.10;;
77524;SDS011;66638;50.050;21.124;2023-11-19T01:59:45;18.10;;;10.50;;
77524;SDS011;66638;50.050;21.124;2023-11-19T02:02:32;15.50;;;10.80;;
77524;SDS011;66638;50.050;21.124;2023-11-19T02:05:20;18.00;;;11.50;;
77524;SDS011;66638;50.050;21.124;2023-11-19T02:08:08;18.60;;;11.50;;
77524;SDS011;66638;50.050;21.124;2023-11-19T02:10:56;17.10;;;9.90;;
77524;SDS011;66638;50.050;21.124;2023-11-19T02:13:44;17.80;;;10.40;;
77524;SDS011;66638;50.050;21.124;2023-11-19T02:16:31;19.40;;;11.10;;
77524;SDS011;66638;50.050;21.124;2023-11-19T02:19:21;19.70;;;11.50;;
77524;SDS011;66638;50.050;21.124;2023-11-19T02:22:08;16.30;;;10.50;;
77524;SDS011;66638;50.050;21.124;2023-11-19T02:24:58;19.80;;;11.70;;
77524;SDS011;66638;50.050;21.124;2023-11-19T02:27:54;16.20;;;10.80;;
77524;SDS011;66638;50.050;21.124;2023-11-19T02:30:46;17.20;;;10.90;;
77524;SDS011;66638;50.050;21.124;2023-11-19T02:33:33;17.60;;;11.30;;
77524;SDS011;66638;50.050;21.124;2023-11-19T02:36:21;16.30;;;9.20;;
77524;SDS011;66638;50.050;21.124;2023-11-19T02:39:08;18.50;;;12.20;;
77524;SDS011;66638;50.050;21.124;2023-11-19T02:41:59;21.10;;;11.80;;
77524;SDS011;66638;50.050;21.124;2023-11-19T02:44:46;20.60;;;13.40;;
77524;SDS011;66638;50.050;21.124;2023-11-19T02:47:35;21.80;;;12.20;;
77524;SDS011;66638;50.050;21.124;2023-11-19T02:50:22;18.60;;;12.80;;
77524;SDS011;66638;50.050;21.124;2023-11-19T02:53:13;16.80;;;11.40;;
77524;SDS011;66638;50.050;21.124;2023-11-19T02:56:00;17.90;;;11.00;;
77524;SDS011;66638;50.050;21.124;2023-11-19T02:59:02;20.10;;;11.60;;
77524;SDS011;66638;50.050;21.124;2023-11-19T03:04:48;18.40;;;11.50;;
77524;SDS011;66638;50.050;21.124;2023-11-19T03:07:36;24.10;;;13.40;;
77524;SDS011;66638;50.050;21.124;2023-11-19T03:10:23;22.20;;;12.80;;
77524;SDS011;66638;50.050;21.124;2023-11-19T03:13:11;20.40;;;11.80;;
77524;SDS011;66638;50.050;21.124;2023-11-19T03:16:04;21.60;;;12.30;;
77524;SDS011;66638;50.050;21.124;2023-11-19T03:18:51;19.20;;;12.60;;
77524;SDS011;66638;50.050;21.124;2023-11-19T03:21:39;21.30;;;12.30;;
77524;SDS011;66638;50.050;21.124;2023-11-19T03:24:26;20.40;;;13.00;;
77524;SDS011;66638;50.050;21.124;2023-11-19T03:27:13;17.70;;;11.40;;
77524;SDS011;66638;50.050;21.124;2023-11-19T03:30:02;23.20;;;13.10;;
77524;SDS011;66638;50.050;21.124;2023-11-19T03:32:52;21.50;;;11.80;;
77524;SDS011;66638;50.050;21.124;2023-11-19T03:35:39;19.60;;;11.50;;
77524;SDS011;66638;50.050;21.124;2023-11-19T03:38:27;18.40;;;12.20;;
77524;SDS011;66638;50.050;21.124;2023-11-19T03:41:15;16.60;;;11.00;;
77524;SDS011;66638;50.050;21.124;2023-11-19T03:44:04;17.20;;;11.20;;
77524;SDS011;66638;50.050;21.124;2023-11-19T03:46:52;17.90;;;11.40;;
77524;SDS011;66638;50.050;21.124;2023-11-19T03:49:39;18.60;;;11.70;;
77524;SDS011;66638;50.050;21.124;2023-11-19T03:52:26;19.30;;;12.10;;
77524;SDS011;66638;50.050;21.124;2023-11-19T03:55:13;19.00;;;11.80;;
77524;SDS011;66638;50.050;21.124;2023-11-19T03:58:01;21.80;;;12.20;;
77524;SDS011;66638;50.050;21.124;2023-11-19T04:00:48;21.10;;;11.50;;
77524;SDS011;66638;50.050;21.124;2023-11-19T04:03:35;18.40;;;10.50;;
77524;SDS011;66638;50.050;21.124;2023-11-19T04:06:23;20.40;;;11.40;;
77524;SDS011;66638;50.050;21.124;2023-11-19T04:09:10;18.80;;;11.80;;
77524;SDS011;66638;50.050;21.124;2023-11-19T04:11:57;20.10;;;11.70;;
77524;SDS011;66638;50.050;21.124;2023-11-19T04:14:44;20.60;;;11.80;;
77524;SDS011;66638;50.050;21.124;2023-11-19T04:17:32;18.50;;;11.20;;
77524;SDS011;66638;50.050;21.124;2023-11-19T04:20:19;19.90;;;12.10;;
77524;SDS011;66638;50.050;21.124;2023-11-19T04:23:07;21.50;;;12.50;;
77524;SDS011;66638;50.050;21.124;2023-11-19T04:25:54;19.10;;;11.00;;
77524;SDS011;66638;50.050;21.124;2023-11-19T04:28:43;18.60;;;12.10;;
77524;SDS011;66638;50.050;21.124;2023-11-19T04:31:30;18.80;;;10.80;;
77524;SDS011;66638;50.050;21.124;2023-11-19T04:34:18;18.00;;;11.60;;
77524;SDS011;66638;50.050;21.124;2023-11-19T04:37:05;20.80;;;11.50;;
77524;SDS011;66638;50.050;21.124;2023-11-19T04:39:52;17.40;;;10.20;;
77524;SDS011;66638;50.050;21.124;2023-11-19T04:42:39;16.20;;;9.70;;
77524;SDS011;66638;50.050;21.124;2023-11-19T04:45:30;18.70;;;12.20;;
77524;SDS011;66638;50.050;21.124;2023-11-19T04:48:17;16.70;;;9.80;;
77524;SDS011;66638;50.050;21.124;2023-11-19T04:51:07;17.60;;;10.80;;
77524;SDS011;66638;50.050;21.124;2023-11-19T04:53:56;15.50;;;8.90;;
77524;SDS011;66638;50.050;21.124;2023-11-19T04:56:45;18.60;;;10.90;;
77524;SDS011;66638;50.050;21.124;2023-11-19T04:59:34;16.50;;;9.20;;
77524;SDS011;66638;50.050;21.124;2023-11-19T05:05:08;16.40;;;9.80;;
77524;SDS011;66638;50.050;21.124;2023-11-19T05:07:56;17.80;;;11.50;;
77524;SDS011;66638;50.050;21.124;2023-11-19T05:10:43;16.30;;;9.70;;
77524;SDS011;66638;50.050;21.124;2023-11-19T05:13:30;17.60;;;10.40;;
77524;SDS011;66638;50.050;21.124;2023-11-19T05:19:06;44.50;;;18.20;;
77524;SDS011;66638;50.050;21.124;2023-11-19T05:21:53;28.20;;;15.60;;
77524;SDS011;66638;50.050;21.124;2023-11-19T05:24:40;17.30;;;9.70;;
77524;SDS011;66638;50.050;21.124;2023-11-19T05:27:27;17.40;;;10.40;;
77524;SDS011;66638;50.050;21.124;2023-11-19T05:30:15;13.30;;;7.80;;
77524;SDS011;66638;50.050;21.124;2023-11-19T05:33:02;12.40;;;7.20;;
77524;SDS011;66638;50.050;21.124;2023-11-19T05:35:50;24.70;;;12.30;;
77524;SDS011;66638;50.050;21.124;2023-11-19T05:38:37;21.40;;;11.60;;
77524;SDS011;66638;50.050;21.124;2023-11-19T05:41:24;18.00;;;10.00;;
77524;SDS011;66638;50.050;21.124;2023-11-19T05:44:11;15.90;;;8.80;;
77524;SDS011;66638;50.050;21.124;2023-11-19T05:46:58;42.30;;;16.10;;
77524;SDS011;66638;50.050;21.124;2023-11-19T05:49:45;46.30;;;18.20;;
77524;SDS011;66638;50.050;21.124;2023-11-19T05:52:33;13.60;;;8.30;;
77524;SDS011;66638;50.050;21.124;2023-11-19T05:55:20;12.30;;;7.10;;
77524;SDS011;66638;50.050;21.124;2023-11-19T05:58:07;39.70;;;15.40;;
77524;SDS011;66638;50.050;21.124;2023-11-19T06:00:58;35.80;;;13.20;;
77524;SDS011;66638;50.050;21.124;2023-11-19T06:03:47;21.50;;;11.10;;
77524;SDS011;66638;50.050;21.124;2023-11-19T06:06:36;16.60;;;10.30;;
77524;SDS011;66638;50.050;21.124;2023-11-19T06:09:23;15.10;;;8.70;;
77524;SDS011;66638;50.050;21.124;2023-11-19T06:12:10;12.20;;;7.80;;
77524;SDS011;66638;50.050;21.124;2023-11-19T06:14:59;10.70;;;7.30;;
77524;SDS011;66638;50.050;21.124;2023-11-19T06:17:47;9.00;;;6.20;;
77524;SDS011;66638;50.050;21.124;2023-11-19T06:20:34;10.40;;;6.20;;
77524;SDS011;66638;50.050;21.124;2023-11-19T06:23:22;10.70;;;6.70;;
77524;SDS011;66638;50.050;21.124;2023-11-19T06:26:09;11.20;;;6.10;;
77524;SDS011;66638;50.050;21.124;2023-11-19T06:28:56;11.00;;;6.00;;
77524;SDS011;66638;50.050;21.124;2023-11-19T06:31:43;8.80;;;5.70;;
77524;SDS011;66638;50.050;21.124;2023-11-19T06:37:19;7.00;;;4.50;;
77524;SDS011;66638;50.050;21.124;2023-11-19T06:40:07;8.10;;;5.60;;
77524;SDS011;66638;50.050;21.124;2023-11-19T06:42:56;5.40;;;3.70;;
77524;SDS011;66638;50.050;21.124;2023-11-19T06:45:43;9.30;;;6.00;;
77524;SDS011;66638;50.050;21.124;2023-11-19T06:48:32;8.70;;;5.40;;
77524;SDS011;66638;50.050;21.124;2023-11-19T06:51:19;7.60;;;5.30;;
77524;SDS011;66638;50.050;21.124;2023-11-19T06:54:06;7.30;;;4.70;;
77524;SDS011;66638;50.050;21.124;2023-11-19T06:56:54;8.70;;;5.90;;
77524;SDS011;66638;50.050;21.124;2023-11-19T06:59:41;8.80;;;5.20;;
77524;SDS011;66638;50.050;21.124;2023-11-19T07:02:30;10.20;;;5.80;;
77524;SDS011;66638;50.050;21.124;2023-11-19T07:05:16;33.90;;;12.90;;
77524;SDS011;66638;50.050;21.124;2023-11-19T07:10:53;8.30;;;6.10;;
77524;SDS011;66638;50.050;21.124;2023-11-19T07:13:41;10.20;;;6.20;;
77524;SDS011;66638;50.050;21.124;2023-11-19T07:16:28;9.10;;;5.90;;
77524;SDS011;66638;50.050;21.124;2023-11-19T07:22:02;8.50;;;5.60;;
77524;SDS011;66638;50.050;21.124;2023-11-19T07:24:50;8.90;;;5.80;;
77524;SDS011;66638;50.050;21.124;2023-11-19T07:27:38;8.20;;;6.10;;
77524;SDS011;66638;50.050;21.124;2023-11-19T07:30:25;6.90;;;4.50;;
77524;SDS011;66638;50.050;21.124;2023-11-19T07:33:12;8.50;;;5.70;;
77524;SDS011;66638;50.050;21.124;2023-11-19T07:36:00;11.70;;;6.10;;
77524;SDS011;66638;50.050;21.124;2023-11-19T07:38:48;26.30;;;9.70;;
77524;SDS011;66638;50.050;21.124;2023-11-19T07:41:35;32.90;;;13.40;;
77524;SDS011;66638;50.050;21.124;2023-11-19T07:44:25;32.20;;;14.60;;
77524;SDS011;66638;50.050;21.124;2023-11-19T07:47:12;22.40;;;11.30;;
77524;SDS011;66638;50.050;21.124;2023-11-19T07:50:00;22.60;;;13.40;;
77524;SDS011;66638;50.050;21.124;2023-11-19T07:55:34;21.20;;;11.50;;
77524;SDS011;66638;50.050;21.124;2023-11-19T07:58:21;10.10;;;6.00;;
77524;SDS011;66638;50.050;21.124;2023-11-19T08:01:08;8.10;;;5.50;;
77524;SDS011;66638;50.050;21.124;2023-11-19T08:03:56;11.10;;;7.20;;
77524;SDS011;66638;50.050;21.124;2023-11-19T08:06:43;9.70;;;6.60;;
77524;SDS011;66638;50.050;21.124;2023-11-19T08:09:32;8.40;;;5.20;;
77524;SDS011;66638;50.050;21.124;2023-11-19T08:15:07;8.60;;;5.80;;
77524;SDS011;66638;50.050;21.124;2023-11-19T08:17:55;8.70;;;5.70;;
77524;SDS011;66638;50.050;21.124;2023-11-19T08:20:42;6.50;;;4.90;;
77524;SDS011;66638;50.050;21.124;2023-11-19T08:23:30;6.00;;;3.70;;
77524;SDS011;66638;50.050;21.124;2023-11-19T08:26:18;10.80;;;5.80;;
77524;SDS011;66638;50.050;21.124;2023-11-19T08:31:52;4.90;;;3.00;;
77524;SDS011;66638;50.050;21.124;2023-11-19T08:34:40;9.90;;;5.80;;
77524;SDS011;66638;50.050;21.124;2023-11-19T08:37:27;7.70;;;5.10;;
77524;SDS011;66638;50.050;21.124;2023-11-19T08:40:14;8.30;;;4.80;;
77524;SDS011;66638;50.050;21.124;2023-11-19T08:45:49;8.70;;;6.10;;
77524;SDS011;66638;50.050;21.124;2023-11-19T08:48:36;10.00;;;5.20;;
77524;SDS011;66638;50.050;21.124;2023-11-19T08:51:23;6.90;;;4.90;;
77524;SDS011;66638;50.050;21.124;2023-11-19T08:54:11;17.80;;;9.70;;
77524;SDS011;66638;50.050;21.124;2023-11-19T08:57:00;11.20;;;7.30;;
77524;SDS011;66638;50.050;21.124;2023-11-19T08:59:47;18.90;;;8.50;;
77524;SDS011;66638;50.050;21.124;2023-11-19T09:05:23;8.70;;;5.00;;
77524;SDS011;66638;50.050;21.124;2023-11-19T09:08:10;8.80;;;5.80;;
77524;SDS011;66638;50.050;21.124;2023-11-19T09:10:58;7.70;;;5.50;;
77524;SDS011;66638;50.050;21.124;2023-11-19T09:13:46;7.80;;;4.90;;
77524;SDS011;66638;50.050;21.124;2023-11-19T09:16:33;7.20;;;4.70;;
77524;SDS011;66638;50.050;21.124;2023-11-19T09:19:21;8.80;;;5.60;;
77524;SDS011;66638;50.050;21.124;2023-11-19T09:22:08;7.20;;;5.10;;
77524;SDS011;66638;50.050;21.124;2023-11-19T09:24:56;6.70;;;4.90;;
77524;SDS011;66638;50.050;21.124;2023-11-19T09:27:43;8.40;;;5.60;;
77524;SDS011;66638;50.050;21.124;2023-11-19T09:30:31;7.00;;;5.50;;
77524;SDS011;66638;50.050;21.124;2023-11-19T09:33:20;7.30;;;5.40;;
77524;SDS011;66638;50.050;21.124;2023-11-19T09:36:08;7.20;;;5.00;;
77524;SDS011;66638;50.050;21.124;2023-11-19T09:38:55;8.90;;;5.40;;
77524;SDS011;66638;50.050;21.124;2023-11-19T09:41:42;9.10;;;5.20;;
77524;SDS011;66638;50.050;21.124;2023-11-19T09:44:31;8.20;;;4.80;;
77524;SDS011;66638;50.050;21.124;2023-11-19T09:47:19;7.70;;;4.70;;
77524;SDS011;66638;50.050;21.124;2023-11-19T09:50:07;8.10;;;5.30;;
77524;SDS011;66638;50.050;21.124;2023-11-19T09:52:56;6.90;;;4.60;;
77524;SDS011;66638;50.050;21.124;2023-11-19T09:55:43;7.60;;;4.60;;
77524;SDS011;66638;50.050;21.124;2023-11-19T09:58:32;7.60;;;5.00;;
77524;SDS011;66638;50.050;21.124;2023-11-19T10:01:19;6.00;;;4.50;;
77524;SDS011;66638;50.050;21.124;2023-11-19T10:04:07;8.10;;;6.00;;
77524;SDS011;66638;50.050;21.124;2023-11-19T10:06:55;6.50;;;4.30;;
77524;SDS011;66638;50.050;21.124;2023-11-19T10:09:43;7.70;;;5.20;;
77524;SDS011;66638;50.050;21.124;2023-11-19T10:12:31;7.70;;;5.60;;
77524;SDS011;66638;50.050;21.124;2023-11-19T10:15:20;6.60;;;4.10;;
77524;SDS011;66638;50.050;21.124;2023-11-19T10:18:09;9.00;;;6.30;;
77524;SDS011;66638;50.050;21.124;2023-11-19T10:20:56;9.30;;;6.50;;
77524;SDS011;66638;50.050;21.124;2023-11-19T10:23:47;7.50;;;5.10;;
77524;SDS011;66638;50.050;21.124;2023-11-19T10:26:36;7.80;;;4.70;;
77524;SDS011;66638;50.050;21.124;2023-11-19T10:29:24;7.10;;;4.70;;
77524;SDS011;66638;50.050;21.124;2023-11-19T10:35:04;7.10;;;4.60;;
77524;SDS011;66638;50.050;21.124;2023-11-19T10:37:53;6.20;;;4.70;;
77524;SDS011;66638;50.050;21.124;2023-11-19T10:40:40;9.30;;;5.00;;
77524;SDS011;66638;50.050;21.124;2023-11-19T10:43:28;6.70;;;4.90;;
77524;SDS011;66638;50.050;21.124;2023-11-19T10:46:15;7.00;;;5.00;;
77524;SDS011;66638;50.050;21.124;2023-11-19T10:49:08;8.50;;;6.10;;
77524;SDS011;66638;50.050;21.124;2023-11-19T10:51:56;7.40;;;5.10;;
77524;SDS011;66638;50.050;21.124;2023-11-19T10:54:44;9.60;;;5.70;;
77524;SDS011;66638;50.050;21.124;2023-11-19T11:00:19;7.50;;;4.50;;
77524;SDS011;66638;50.050;21.124;2023-11-19T11:03:12;7.20;;;4.90;;
77524;SDS011;66638;50.050;21.124;2023-11-19T11:06:03;7.20;;;5.50;;
77524;SDS011;66638;50.050;21.124;2023-11-19T11:08:50;6.70;;;4.40;;
77524;SDS011;66638;50.050;21.124;2023-11-19T11:11:39;7.10;;;5.00;;
77524;SDS011;66638;50.050;21.124;2023-11-19T11:14:27;8.60;;;5.70;;
77524;SDS011;66638;50.050;21.124;2023-11-19T11:17:16;7.10;;;4.40;;
77524;SDS011;66638;50.050;21.124;2023-11-19T11:20:04;6.40;;;4.30;;
77524;SDS011;66638;50.050;21.124;2023-11-19T11:26:28;8.00;;;5.20;;
77524;SDS011;66638;50.050;21.124;2023-11-19T11:29:47;7.60;;;5.10;;
77524;SDS011;66638;50.050;21.124;2023-11-19T11:36:05;7.40;;;5.40;;
77524;SDS011;66638;50.050;21.124;2023-11-19T11:39:00;10.60;;;5.50;;
77524;SDS011;66638;50.050;21.124;2023-11-19T11:42:04;8.00;;;5.20;;
77524;SDS011;66638;50.050;21.124;2023-11-19T11:45:15;7.10;;;5.20;;
77524;SDS011;66638;50.050;21.124;2023-11-19T11:48:04;8.50;;;5.70;;
77524;SDS011;66638;50.050;21.124;2023-11-19T11:50:57;14.00;;;11.10;;
77524;SDS011;66638;50.050;21.124;2023-11-19T11:53:45;10.90;;;7.20;;
77524;SDS011;66638;50.050;21.124;2023-11-19T11:56:36;8.40;;;5.40;;
77524;SDS011;66638;50.050;21.124;2023-11-19T11:59:24;7.90;;;5.40;;
77524;SDS011;66638;50.050;21.124;2023-11-19T12:02:13;8.40;;;6.10;;
77524;SDS011;66638;50.050;21.124;2023-11-19T12:05:03;10.60;;;5.80;;
77524;SDS011;66638;50.050;21.124;2023-11-19T12:08:03;8.30;;;6.20;;
77524;SDS011;66638;50.050;21.124;2023-11-19T12:10:54;9.20;;;6.10;;
77524;SDS011;66638;50.050;21.124;2023-11-19T12:16:42;8.10;;;4.70;;
77524;SDS011;66638;50.050;21.124;2023-11-19T12:19:30;8.40;;;5.00;;
77524;SDS011;66638;50.050;21.124;2023-11-19T12:25:08;17.80;;;10.40;;
77524;SDS011;66638;50.050;21.124;2023-11-19T12:27:57;6.50;;;4.00;;
77524;SDS011;66638;50.050;21.124;2023-11-19T12:30:45;8.90;;;5.60;;
77524;SDS011;66638;50.050;21.124;2023-11-19T12:33:33;7.60;;;5.10;;
77524;SDS011;66638;50.050;21.124;2023-11-19T12:36:22;7.30;;;4.60;;
77524;SDS011;66638;50.050;21.124;2023-11-19T12:39:09;10.50;;;5.30;;
77524;SDS011;66638;50.050;21.124;2023-11-19T12:41:59;9.20;;;5.50;;
77524;SDS011;66638;50.050;21.124;2023-11-19T12:44:55;8.60;;;5.70;;
77524;SDS011;66638;50.050;21.124;2023-11-19T12:47:43;9.70;;;6.20;;
77524;SDS011;66638;50.050;21.124;2023-11-19T12:50:49;10.30;;;6.10;;
77524;SDS011;66638;50.050;21.124;2023-11-19T12:56:52;9.60;;;5.90;;
77524;SDS011;66638;50.050;21.124;2023-11-19T12:59:40;11.70;;;5.80;;
77524;SDS011;66638;50.050;21.124;2023-11-19T13:05:36;7.90;;;5.20;;
77524;SDS011;66638;50.050;21.124;2023-11-19T13:08:24;9.10;;;6.00;;
77524;SDS011;66638;50.050;21.124;2023-11-19T13:11:12;9.10;;;4.90;;
77524;SDS011;66638;50.050;21.124;2023-11-19T13:14:01;8.60;;;5.30;;
77524;SDS011;66638;50.050;21.124;2023-11-19T13:16:55;10.50;;;5.40;;
77524;SDS011;66638;50.050;21.124;2023-11-19T13:19:42;10.10;;;6.00;;
77524;SDS011;66638;50.050;21.124;2023-11-19T13:22:30;19.00;;;9.80;;
77524;SDS011;66638;50.050;21.124;2023-11-19T13:25:17;7.70;;;4.50;;
77524;SDS011;66638;50.050;21.124;2023-11-19T13:28:04;27.70;;;13.00;;
77524;SDS011;66638;50.050;21.124;2023-11-19T13:30:52;52.90;;;23.60;;
77524;SDS011;66638;50.050;21.124;2023-11-19T13:36:27;9.20;;;5.60;;
77524;SDS011;66638;50.050;21.124;2023-11-19T13:42:09;8.00;;;4.70;;
77524;SDS011;66638;50.050;21.124;2023-11-19T13:44:56;6.40;;;3.00;;
77524;SDS011;66638;50.050;21.124;2023-11-19T13:47:44;8.90;;;5.10;;
77524;SDS011;66638;50.050;21.124;2023-11-19T13:50:32;9.10;;;5.90;;
77524;SDS011;66638;50.050;21.124;2023-11-19T13:53:20;9.00;;;5.90;;
77524;SDS011;66638;50.050;21.124;2023-11-19T13:56:08;7.70;;;4.40;;
77524;SDS011;66638;50.050;21.124;2023-11-19T13:58:55;10.40;;;7.00;;
77524;SDS011;66638;50.050;21.124;2023-11-19T14:01:43;11.60;;;6.70;;
77524;SDS011;66638;50.050;21.124;2023-11-19T14:04:30;12.20;;;8.20;;
77524;SDS011;66638;50.050;21.124;2023-11-19T14:07:17;11.70;;;9.00;;
77524;SDS011;66638;50.050;21.124;2023-11-19T14:10:05;13.40;;;9.90;;
77524;SDS011;66638;50.050;21.124;2023-11-19T14:12:53;7.30;;;5.50;;
77524;SDS011;66638;50.050;21.124;2023-11-19T14:18:27;11.80;;;8.20;;
77524;SDS011;66638;50.050;21.124;2023-11-19T14:21:14;13.60;;;7.10;;
77524;SDS011;66638;50.050;21.124;2023-11-19T14:24:01;19.30;;;12.90;;
77524;SDS011;66638;50.050;21.124;2023-11-19T14:26:50;9.90;;;6.00;;
77524;SDS011;66638;50.050;21.124;2023-11-19T14:29:38;8.30;;;5.50;;
77524;SDS011;66638;50.050;21.124;2023-11-19T14:32:27;11.10;;;7.20;;
77524;SDS011;66638;50.050;21.124;2023-11-19T14:35:14;12.80;;;8.20;;
77524;SDS011;66638;50.050;21.124;2023-11-19T14:38:01;12.60;;;8.50;;
77524;SDS011;66638;50.050;21.124;2023-11-19T14:40:52;16.00;;;9.60;;
77524;SDS011;66638;50.050;21.124;2023-11-19T14:43:39;13.70;;;8.30;;
77524;SDS011;66638;50.050;21.124;2023-11-19T14:46:27;16.50;;;10.50;;
77524;SDS011;66638;50.050;21.124;2023-11-19T14:49:14;14.00;;;8.70;;
77524;SDS011;66638;50.050;21.124;2023-11-19T14:52:01;16.60;;;9.30;;
77524;SDS011;66638;50.050;21.124;2023-11-19T14:54:48;13.10;;;8.40;;
77524;SDS011;66638;50.050;21.124;2023-11-19T14:57:38;15.70;;;10.10;;
77524;SDS011;66638;50.050;21.124;2023-11-19T15:00:25;17.80;;;9.60;;
77524;SDS011;66638;50.050;21.124;2023-11-19T15:03:14;17.40;;;10.60;;
77524;SDS011;66638;50.050;21.124;2023-11-19T15:06:03;17.30;;;10.60;;
77524;SDS011;66638;50.050;21.124;2023-11-19T15:08:51;17.30;;;10.20;;
77524;SDS011;66638;50.050;21.124;2023-11-19T15:11:38;13.30;;;8.70;;
77524;SDS011;66638;50.050;21.124;2023-11-19T15:14:25;13.20;;;9.00;;
77524;SDS011;66638;50.050;21.124;2023-11-19T15:17:12;12.00;;;7.70;;
77524;SDS011;66638;50.050;21.124;2023-11-19T15:22:47;14.10;;;7.80;;
77524;SDS011;66638;50.050;21.124;2023-11-19T15:25:34;14.30;;;8.90;;
77524;SDS011;66638;50.050;21.124;2023-11-19T15:28:23;22.10;;;13.40;;
77524;SDS011;66638;50.050;21.124;2023-11-19T15:31:10;18.40;;;11.10;;
77524;SDS011;66638;50.050;21.124;2023-11-19T15:33:58;17.00;;;10.40;;
77524;SDS011;66638;50.050;21.124;2023-11-19T15:36:45;15.50;;;9.40;;
77524;SDS011;66638;50.050;21.124;2023-11-19T15:39:33;20.10;;;12.60;;
77524;SDS011;66638;50.050;21.124;2023-11-19T15:42:22;39.60;;;23.20;;
77524;SDS011;66638;50.050;21.124;2023-11-19T15:45:09;20.20;;;12.40;;
77524;SDS011;66638;50.050;21.124;2023-11-19T15:47:58;15.60;;;9.70;;
77524;SDS011;66638;50.050;21.124;2023-11-19T15:50:46;15.20;;;8.50;;
77524;SDS011;66638;50.050;21.124;2023-11-19T15:53:33;14.80;;;8.20;;
77524;SDS011;66638;50.050;21.124;2023-11-19T15:56:20;15.50;;;9.60;;
77524;SDS011;66638;50.050;21.124;2023-11-19T15:59:08;16.60;;;8.60;;
77524;SDS011;66638;50.050;21.124;2023-11-19T16:01:55;15.60;;;9.30;;
77524;SDS011;66638;50.050;21.124;2023-11-19T16:04:42;14.20;;;9.30;;
77524;SDS011;66638;50.050;21.124;2023-11-19T16:07:34;14.30;;;8.50;;
77524;SDS011;66638;50.050;21.124;2023-11-19T16:10:22;13.90;;;8.70;;
77524;SDS011;66638;50.050;21.124;2023-11-19T16:13:10;40.60;;;18.60;;
77524;SDS011;66638;50.050;21.124;2023-11-19T16:15:57;22.80;;;13.20;;
77524;SDS011;66638;50.050;21.124;2023-11-19T16:18:44;15.80;;;9.70;;
77524;SDS011;66638;50.050;21.124;2023-11-19T16:21:32;11.30;;;7.00;;
77524;SDS011;66638;50.050;21.124;2023-11-19T16:24:21;16.30;;;9.90;;
77524;SDS011;66638;50.050;21.124;2023-11-19T16:27:08;12.60;;;7.90;;
77524;SDS011;66638;50.050;21.124;2023-11-19T16:29:56;16.80;;;9.30;;
77524;SDS011;66638;50.050;21.124;2023-11-19T16:32:48;13.50;;;9.20;;
77524;SDS011;66638;50.050;21.124;2023-11-19T16:35:40;13.50;;;8.00;;
77524;SDS011;66638;50.050;21.124;2023-11-19T16:41:19;12.60;;;6.90;;
77524;SDS011;66638;50.050;21.124;2023-11-19T16:44:10;11.00;;;7.80;;
77524;SDS011;66638;50.050;21.124;2023-11-19T16:49:44;13.20;;;8.60;;
77524;SDS011;66638;50.050;21.124;2023-11-19T16:52:31;20.60;;;13.30;;
77524;SDS011;66638;50.050;21.124;2023-11-19T16:55:19;13.00;;;7.60;;
77524;SDS011;66638;50.050;21.124;2023-11-19T16:58:06;12.20;;;8.20;;
77524;SDS011;66638;50.050;21.124;2023-11-19T17:00:54;14.80;;;9.70;;
77524;SDS011;66638;50.050;21.124;2023-11-19T17:03:41;20.60;;;13.40;;
77524;SDS011;66638;50.050;21.124;2023-11-19T17:06:29;15.10;;;12.20;;
77524;SDS011;66638;50.050;21.124;2023-11-19T17:09:17;14.30;;;11.10;;
77524;SDS011;66638;50.050;21.124;2023-11-19T17:12:04;9.30;;;7.60;;
77524;SDS011;66638;50.050;21.124;2023-11-19T17:14:53;10.40;;;7.00;;
77524;SDS011;66638;50.050;21.124;2023-11-19T17:17:48;12.80;;;9.00;;
77524;SDS011;66638;50.050;21.124;2023-11-19T17:20:35;17.00;;;10.10;;
77524;SDS011;66638;50.050;21.124;2023-11-19T17:23:24;14.40;;;9.40;;
77524;SDS011;66638;50.050;21.124;2023-11-19T17:26:11;11.90;;;8.00;;
77524;SDS011;66638;50.050;21.124;2023-11-19T17:28:58;15.10;;;9.20;;
77524;SDS011;66638;50.050;21.124;2023-11-19T17:31:45;13.60;;;9.30;;
77524;SDS011;66638;50.050;21.124;2023-11-19T17:34:33;12.70;;;7.70;;
77524;SDS011;66638;50.050;21.124;2023-11-19T17:37:21;11.50;;;7.50;;
77524;SDS011;66638;50.050;21.124;2023-11-19T17:40:08;9.30;;;6.10;;
77524;SDS011;66638;50.050;21.124;2023-11-19T17:42:58;10.20;;;6.50;;
77524;SDS011;66638;50.050;21.124;2023-11-19T17:48:32;9.80;;;6.60;;
77524;SDS011;66638;50.050;21.124;2023-11-19T17:51:21;8.40;;;5.20;;